createdAt,value
2023-06-23T00:01:01.131Z,100.00
2023-06-23T00:03:44.640Z,100.00
2023-06-23T00:06:14.156Z,100.00
2023-06-23T00:08:43.014Z,100.00
2023-06-23T00:11:12.000Z,100.00
2023-06-23T00:13:39.936Z,100.00
2023-06-23T00:16:08.224Z,100.00
2023-06-23T00:18:38.026Z,100.00
2023-06-23T00:21:07.875Z,100.00
2023-06-23T00:23:35.917Z,100.00
2023-06-23T00:26:09.157Z,100.00
2023-06-23T00:28:38.444Z,100.00
2023-06-23T00:31:09.062Z,100.00
2023-06-23T00:33:37.274Z,100.00
2023-06-23T00:36:05.653Z,100.00
2023-06-23T00:38:35.164Z,100.00
2023-06-23T00:41:03.759Z,100.00
2023-06-23T00:43:32.308Z,100.00
2023-06-23T00:46:10.923Z,100.00
2023-06-23T00:48:39.337Z,100.00
2023-06-23T00:51:07.496Z,100.00
2023-06-23T00:53:36.062Z,100.00
2023-06-23T00:56:04.700Z,100.00
2023-06-23T00:58:36.970Z,100.00
2023-06-23T01:01:04.957Z,100.00
2023-06-23T01:03:33.008Z,100.00
2023-06-23T01:06:18.816Z,100.00
2023-06-23T01:08:58.412Z,100.00
2023-06-23T01:11:33.935Z,100.00
2023-06-23T01:14:14.379Z,100.00
2023-06-23T01:17:25.636Z,100.00
2023-06-23T01:20:25.780Z,100.00
2023-06-23T01:23:23.896Z,100.00
2023-06-23T01:26:16.630Z,100.00
2023-06-23T01:28:55.291Z,100.00
2023-06-23T01:31:32.759Z,100.00
2023-06-23T01:34:06.173Z,100.00
2023-06-23T01:36:42.257Z,100.00
2023-06-23T01:39:15.207Z,100.00
2023-06-23T01:41:53.533Z,100.00
2023-06-23T01:44:25.065Z,100.00
2023-06-23T01:46:56.898Z,100.00
2023-06-23T01:49:32.377Z,100.00
2023-06-23T01:52:02.475Z,100.00
2023-06-23T01:54:31.041Z,100.00
2023-06-23T01:57:00.018Z,100.00
2023-06-23T01:59:29.515Z,100.00
2023-06-23T02:02:00.296Z,100.00
2023-06-23T02:04:30.728Z,100.00
2023-06-23T02:06:59.407Z,100.00
2023-06-23T02:09:31.020Z,100.00
2023-06-23T02:11:59.799Z,100.00
2023-06-23T02:14:30.629Z,100.00
2023-06-23T02:17:00.365Z,100.00
2023-06-23T02:19:29.806Z,100.00
2023-06-23T02:21:58.106Z,100.00
2023-06-23T02:24:27.463Z,100.00
2023-06-23T02:26:55.569Z,100.00
2023-06-23T02:29:24.852Z,100.00
2023-06-23T02:31:54.074Z,100.00
2023-06-23T02:34:22.137Z,100.00
2023-06-23T02:36:56.023Z,100.00
2023-06-23T02:39:29.755Z,100.00
2023-06-23T02:42:00.667Z,100.00
2023-06-23T02:44:35.828Z,100.00
2023-06-23T02:47:06.734Z,100.00
2023-06-23T02:49:38.447Z,100.00
2023-06-23T02:52:10.529Z,100.00
2023-06-23T02:54:44.227Z,100.00
2023-06-23T02:57:15.889Z,100.00
2023-06-23T02:59:46.668Z,100.00
2023-06-23T03:02:17.220Z,100.00
2023-06-23T03:04:46.381Z,100.00
2023-06-23T03:07:15.858Z,100.00
2023-06-23T03:09:45.869Z,100.00
2023-06-23T03:12:13.822Z,100.00
2023-06-23T03:14:41.841Z,100.00
2023-06-23T03:17:25.661Z,100.00
2023-06-23T03:20:19.600Z,100.00
2023-06-23T03:22:53.031Z,100.00
2023-06-23T03:25:27.346Z,100.00
2023-06-23T03:28:00.044Z,100.00
2023-06-23T03:30:52.280Z,100.00
2023-06-23T03:33:27.987Z,100.00
2023-06-23T03:36:02.167Z,100.00
2023-06-23T03:38:35.733Z,100.00
2023-06-23T03:41:10.498Z,100.00
2023-06-23T03:44:11.674Z,100.00
2023-06-23T03:46:55.289Z,100.00
2023-06-23T03:49:28.562Z,100.00
2023-06-23T03:51:58.989Z,100.00
2023-06-23T03:54:28.806Z,100.00
2023-06-23T03:56:58.078Z,100.00
2023-06-23T03:59:28.805Z,100.00
2023-06-23T04:01:58.810Z,100.00
2023-06-23T04:04:27.922Z,100.00
2023-06-23T04:06:57.631Z,100.00
2023-06-23T04:09:31.084Z,100.00
2023-06-23T04:12:00.762Z,100.00
2023-06-23T04:14:30.952Z,100.00
2023-06-23T04:17:00.499Z,100.00
2023-06-23T04:19:30.956Z,100.00
2023-06-23T04:22:01.467Z,100.00
2023-06-23T04:24:31.339Z,100.00
2023-06-23T04:27:00.339Z,100.00
2023-06-23T04:29:30.474Z,100.00
2023-06-23T04:31:59.430Z,100.00
2023-06-23T04:34:27.475Z,100.00
2023-06-23T04:37:05.070Z,100.00
2023-06-23T04:39:45.617Z,100.00
2023-06-23T04:42:14.980Z,100.00
2023-06-23T04:44:50.966Z,100.00
2023-06-23T04:47:23.303Z,100.00
2023-06-23T04:49:58.590Z,100.00
2023-06-23T04:52:27.774Z,100.00
2023-06-23T04:55:00.624Z,100.00
2023-06-23T04:57:35.072Z,100.00
2023-06-23T05:00:08.744Z,100.00
2023-06-23T05:02:38.901Z,100.00
2023-06-23T05:05:09.210Z,100.00
2023-06-23T05:07:39.248Z,100.00
2023-06-23T05:10:09.178Z,100.00
2023-06-23T05:12:39.597Z,100.00
2023-06-23T05:15:09.261Z,100.00
2023-06-23T05:17:40.738Z,100.00
2023-06-23T05:20:11.020Z,100.00
2023-06-23T05:22:40.671Z,100.00
2023-06-23T05:25:10.065Z,100.00
2023-06-23T05:27:42.077Z,100.00
2023-06-23T05:30:14.837Z,100.00
2023-06-23T05:32:43.996Z,100.00
2023-06-23T05:35:13.267Z,100.00
2023-06-23T05:37:43.509Z,100.00
2023-06-23T05:40:14.894Z,100.00
2023-06-23T05:42:43.561Z,100.00
2023-06-23T05:45:13.728Z,100.00
2023-06-23T05:48:06.146Z,100.00
2023-06-23T05:50:38.438Z,100.00
2023-06-23T05:53:13.162Z,100.00
2023-06-23T05:55:45.095Z,100.00
2023-06-23T05:58:16.269Z,100.00
2023-06-23T06:00:54.532Z,100.00
2023-06-23T06:03:29.295Z,100.00
2023-06-23T06:06:00.723Z,100.00
2023-06-23T06:08:29.393Z,100.00
2023-06-23T06:10:59.284Z,100.00
2023-06-23T06:13:30.628Z,100.00
2023-06-23T06:15:59.383Z,99.98
2023-06-23T06:18:28.122Z,100.00
2023-06-23T06:20:59.750Z,99.87
2023-06-23T06:23:30.115Z,99.47
2023-06-23T06:25:58.702Z,99.45
2023-06-23T06:28:28.155Z,99.33
2023-06-23T06:30:58.569Z,99.26
2023-06-23T06:33:28.198Z,99.15
2023-06-23T06:35:59.980Z,99.05
2023-06-23T06:38:30.623Z,98.66
2023-06-23T06:40:59.525Z,97.21
2023-06-23T06:43:27.460Z,97.33
2023-06-23T06:45:56.129Z,97.38
2023-06-23T06:48:27.359Z,97.09
2023-06-23T06:50:57.705Z,96.70
2023-06-23T06:53:26.895Z,95.85
2023-06-23T06:55:56.734Z,95.55
2023-06-23T06:58:25.108Z,94.55
2023-06-23T07:00:56.669Z,94.79
2023-06-23T07:03:25.859Z,94.72
2023-06-23T07:05:54.013Z,94.27
2023-06-23T07:08:21.985Z,93.14
2023-06-23T07:10:50.035Z,93.17
2023-06-23T07:13:18.021Z,92.72
2023-06-23T07:15:46.004Z,91.91
2023-06-23T07:18:14.435Z,90.23
2023-06-23T07:20:42.584Z,89.29
2023-06-23T07:23:10.927Z,88.48
2023-06-23T07:25:38.845Z,86.92
2023-06-23T07:28:06.881Z,86.29
2023-06-23T07:30:34.881Z,84.85
2023-06-23T07:33:03.624Z,84.71
2023-06-23T07:35:31.572Z,84.98
2023-06-23T07:37:59.379Z,84.73
2023-06-23T07:40:27.268Z,84.94
2023-06-23T07:42:55.107Z,84.48
2023-06-23T07:45:23.213Z,83.96
2023-06-23T07:47:51.112Z,83.67
2023-06-23T07:50:18.984Z,83.83
2023-06-23T07:52:53.379Z,82.46
2023-06-23T07:55:21.801Z,82.18
2023-06-23T07:57:52.273Z,81.62
2023-06-23T08:00:20.464Z,81.65
2023-06-23T08:02:48.418Z,80.12
2023-06-23T08:05:16.621Z,80.32
2023-06-23T08:07:46.689Z,79.48
2023-06-23T08:10:14.726Z,79.24
2023-06-23T08:12:42.518Z,77.51
2023-06-23T08:15:10.799Z,76.80
2023-06-23T08:17:38.696Z,75.22
2023-06-23T08:20:07.426Z,75.49
2023-06-23T08:22:35.380Z,76.21
2023-06-23T08:25:03.619Z,76.37
2023-06-23T08:27:31.450Z,76.12
2023-06-23T08:29:59.319Z,75.93
2023-06-23T08:32:27.668Z,75.78
2023-06-23T08:34:55.764Z,75.34
2023-06-23T08:37:23.556Z,74.61
2023-06-23T08:39:51.408Z,74.90
2023-06-23T08:42:21.094Z,73.94
2023-06-23T08:44:51.885Z,72.07
2023-06-23T08:47:23.244Z,72.10
2023-06-23T08:49:52.147Z,72.98
2023-06-23T08:52:21.858Z,73.72
2023-06-23T08:54:49.963Z,72.78
2023-06-23T08:57:18.584Z,72.51
2023-06-23T08:59:47.796Z,71.66
2023-06-23T09:02:17.176Z,71.02
2023-06-23T09:04:45.189Z,69.76
2023-06-23T09:07:13.197Z,70.11
2023-06-23T09:09:46.641Z,70.70
2023-06-23T09:12:22.907Z,70.54
2023-06-23T09:14:55.045Z,69.47
2023-06-23T09:17:24.202Z,68.49
2023-06-23T09:19:56.039Z,69.70
2023-06-23T09:22:25.796Z,70.00
2023-06-23T09:24:53.562Z,69.79
2023-06-23T09:27:39.540Z,69.51
2023-06-23T09:30:09.651Z,69.04
2023-06-23T09:32:37.361Z,69.01
2023-06-23T09:35:05.213Z,69.65
2023-06-23T09:37:38.977Z,69.63
2023-06-23T09:40:07.974Z,69.02
2023-06-23T09:42:36.256Z,67.97
2023-06-23T09:45:18.003Z,66.72
2023-06-23T09:47:49.745Z,66.63
2023-06-23T09:50:19.370Z,66.13
2023-06-23T09:52:47.497Z,64.72
2023-06-23T09:55:17.529Z,65.00
2023-06-23T09:57:45.964Z,63.78
2023-06-23T10:00:17.253Z,63.25
2023-06-23T10:02:46.140Z,64.32
2023-06-23T10:05:16.911Z,62.77
2023-06-23T10:07:44.839Z,62.46
2023-06-23T10:10:22.263Z,62.41
2023-06-23T10:12:51.474Z,62.66
2023-06-23T10:15:20.864Z,63.16
2023-06-23T10:17:51.607Z,62.93
2023-06-23T10:20:19.690Z,62.68
2023-06-23T10:22:48.524Z,62.91
2023-06-23T10:25:16.695Z,61.29
2023-06-23T10:27:46.764Z,60.63
2023-06-23T10:30:16.197Z,61.07
2023-06-23T10:32:51.090Z,60.91
2023-06-23T10:35:22.918Z,58.09
2023-06-23T10:38:03.745Z,58.13
2023-06-23T10:40:40.197Z,59.44
2023-06-23T10:43:09.199Z,59.21
2023-06-23T10:45:38.806Z,57.16
2023-06-23T10:48:07.183Z,55.41
2023-06-23T10:50:36.044Z,53.51
2023-06-23T10:53:12.113Z,51.89
2023-06-23T10:55:57.979Z,52.55
2023-06-23T10:58:30.412Z,53.09
2023-06-23T11:01:01.549Z,51.30
2023-06-23T11:03:37.300Z,52.72
2023-06-23T11:06:10.527Z,54.33
2023-06-23T11:08:45.703Z,55.57
2023-06-23T11:11:14.611Z,55.09
2023-06-23T11:13:43.564Z,53.68
2023-06-23T11:16:20.236Z,53.87
2023-06-23T11:19:01.222Z,54.88
2023-06-23T11:21:31.354Z,53.82
2023-06-23T11:24:21.671Z,51.51
2023-06-23T11:26:49.862Z,52.83
2023-06-23T11:29:23.449Z,53.37
2023-06-23T11:32:12.857Z,52.55
2023-06-23T11:34:58.896Z,52.99
2023-06-23T11:37:29.664Z,52.88
2023-06-23T11:39:58.406Z,52.45
2023-06-23T11:42:26.417Z,51.59
2023-06-23T11:44:58.200Z,52.59
2023-06-23T11:47:31.795Z,52.24
2023-06-23T11:50:04.101Z,51.27
2023-06-23T11:52:32.320Z,50.15
2023-06-23T11:55:00.496Z,50.30
2023-06-23T11:57:28.833Z,49.45
2023-06-23T11:59:56.762Z,48.86
2023-06-23T12:02:24.686Z,47.80
2023-06-23T12:04:52.723Z,46.74
2023-06-23T12:07:21.951Z,46.40
2023-06-23T12:09:52.907Z,46.71
2023-06-23T12:12:20.766Z,46.79
2023-06-23T12:14:48.550Z,45.17
2023-06-23T12:17:16.521Z,45.24
2023-06-23T12:19:44.761Z,45.35
2023-06-23T12:22:19.361Z,45.12
2023-06-23T12:24:47.768Z,45.28
2023-06-23T12:27:16.298Z,45.97
2023-06-23T12:29:44.300Z,46.61
2023-06-23T12:32:12.211Z,46.61
2023-06-23T12:34:46.453Z,46.09
2023-06-23T12:37:18.986Z,46.76
2023-06-23T12:39:55.520Z,47.62
2023-06-23T12:42:23.820Z,48.40
2023-06-23T12:44:52.876Z,47.28
2023-06-23T12:47:20.970Z,47.05
2023-06-23T12:49:49.345Z,46.92
2023-06-23T12:52:17.482Z,47.44
2023-06-23T12:54:45.541Z,46.24
2023-06-23T12:57:13.617Z,46.48
2023-06-23T12:59:42.972Z,47.03
2023-06-23T13:02:15.760Z,45.44
2023-06-23T13:04:43.918Z,45.90
2023-06-23T13:07:11.951Z,46.23
2023-06-23T13:09:40.049Z,45.75
2023-06-23T13:12:08.483Z,45.48
2023-06-23T13:14:36.413Z,46.34
2023-06-23T13:17:04.553Z,47.97
2023-06-23T13:19:32.492Z,47.47
2023-06-23T13:22:00.368Z,47.59
2023-06-23T13:24:28.335Z,47.15
2023-06-23T13:26:56.190Z,47.35
2023-06-23T13:29:24.545Z,47.53
2023-06-23T13:31:52.406Z,47.39
2023-06-23T13:34:20.197Z,48.37
2023-06-23T13:36:48.134Z,48.68
2023-06-23T13:39:16.056Z,48.33
2023-06-23T13:41:44.003Z,48.05
2023-06-23T13:44:14.582Z,47.99
2023-06-23T13:46:42.684Z,47.85
2023-06-23T13:49:13.462Z,47.79
2023-06-23T13:51:42.496Z,48.07
2023-06-23T13:54:10.376Z,48.10
2023-06-23T13:56:38.505Z,48.02
2023-06-23T13:59:06.540Z,47.81
2023-06-23T14:01:34.540Z,48.05
2023-06-23T14:04:02.527Z,48.28
2023-06-23T14:06:30.374Z,48.15
2023-06-23T14:08:58.921Z,47.95
2023-06-23T14:11:27.749Z,48.31
2023-06-23T14:13:55.736Z,48.07
2023-06-23T14:16:23.925Z,48.68
2023-06-23T14:18:51.927Z,48.86
2023-06-23T14:21:19.990Z,48.61
2023-06-23T14:23:48.427Z,48.44
2023-06-23T14:26:16.376Z,48.42
2023-06-23T14:28:44.646Z,47.69
2023-06-23T14:31:12.634Z,47.60
2023-06-23T14:33:40.668Z,48.03
2023-06-23T14:36:08.650Z,48.40
2023-06-23T14:38:36.878Z,48.03
2023-06-23T14:41:05.129Z,48.65
2023-06-23T14:43:33.136Z,48.92
2023-06-23T14:46:03.989Z,48.46
2023-06-23T14:48:32.120Z,48.27
2023-06-23T14:51:00.514Z,48.65
2023-06-23T14:53:28.633Z,48.46
2023-06-23T14:55:56.916Z,48.77
2023-06-23T14:58:25.229Z,49.75
2023-06-23T15:00:53.164Z,49.50
2023-06-23T15:03:22.351Z,49.20
2023-06-23T15:05:51.153Z,49.36
2023-06-23T15:08:19.634Z,49.29
2023-06-23T15:10:47.436Z,49.13
2023-06-23T15:13:15.689Z,48.26
2023-06-23T15:15:43.623Z,48.76
2023-06-23T15:18:11.582Z,48.06
2023-06-23T15:20:39.822Z,48.07
2023-06-23T15:23:07.748Z,48.55
2023-06-23T15:25:36.078Z,48.41
2023-06-23T15:28:07.728Z,48.28
2023-06-23T15:30:35.598Z,47.86
2023-06-23T15:33:03.741Z,49.06
2023-06-23T15:35:31.937Z,49.16
2023-06-23T15:38:00.488Z,49.04
2023-06-23T15:40:28.539Z,48.75
2023-06-23T15:42:56.433Z,48.74
2023-06-23T15:45:24.229Z,48.75
2023-06-23T15:47:52.164Z,48.85
2023-06-23T15:50:20.200Z,48.85
2023-06-23T15:52:48.336Z,49.07
2023-06-23T15:55:16.309Z,49.14
2023-06-23T15:57:44.184Z,48.99
2023-06-23T16:00:13.101Z,49.51
2023-06-23T16:02:41.133Z,49.78
2023-06-23T16:05:09.356Z,50.20
2023-06-23T16:07:37.489Z,49.87
2023-06-23T16:10:05.780Z,49.68
2023-06-23T16:12:33.697Z,49.95
2023-06-23T16:15:01.515Z,49.86
2023-06-23T16:17:30.235Z,50.54
2023-06-23T16:19:58.314Z,50.17
2023-06-23T16:22:26.488Z,50.22
2023-06-23T16:24:54.422Z,50.28
2023-06-23T16:27:22.392Z,50.75
2023-06-23T16:29:50.301Z,51.39
2023-06-23T16:32:18.359Z,51.68
2023-06-23T16:34:46.531Z,51.51
2023-06-23T16:37:14.852Z,51.57
2023-06-23T16:39:42.955Z,51.93
2023-06-23T16:42:11.402Z,52.49
2023-06-23T16:44:41.180Z,52.65
2023-06-23T16:47:11.373Z,52.62
2023-06-23T16:49:39.591Z,53.11
2023-06-23T16:52:09.363Z,52.64
2023-06-23T16:54:38.927Z,52.45
2023-06-23T16:57:09.871Z,52.22
2023-06-23T16:59:38.127Z,52.32
2023-06-23T17:02:06.626Z,52.70
2023-06-23T17:04:36.584Z,53.03
2023-06-23T17:07:05.466Z,53.54
2023-06-23T17:09:33.633Z,53.58
2023-06-23T17:12:17.711Z,53.64
2023-06-23T17:14:48.318Z,54.24
2023-06-23T17:17:16.268Z,54.54
2023-06-23T17:19:44.298Z,55.02
2023-06-23T17:22:13.086Z,55.24
2023-06-23T17:24:40.976Z,55.60
2023-06-23T17:27:08.900Z,56.10
2023-06-23T17:29:36.863Z,56.24
2023-06-23T17:32:06.667Z,56.51
2023-06-23T17:34:34.741Z,56.70
2023-06-23T17:37:03.139Z,56.89
2023-06-23T17:39:30.971Z,57.37
2023-06-23T17:41:58.889Z,58.11
2023-06-23T17:44:27.024Z,58.27
2023-06-23T17:46:55.591Z,58.60
2023-06-23T17:49:23.666Z,59.26
2023-06-23T17:51:51.531Z,60.01
2023-06-23T17:54:19.412Z,60.59
2023-06-23T17:56:47.396Z,60.60
2023-06-23T17:59:15.902Z,60.96
2023-06-23T18:01:43.838Z,60.92
2023-06-23T18:04:11.843Z,61.03
2023-06-23T18:06:39.805Z,61.15
2023-06-23T18:09:07.763Z,61.19
2023-06-23T18:11:35.673Z,61.74
2023-06-23T18:14:04.337Z,61.96
2023-06-23T18:16:32.285Z,62.15
2023-06-23T18:19:00.221Z,62.52
2023-06-23T18:21:28.290Z,63.06
2023-06-23T18:23:56.179Z,64.09
2023-06-23T18:26:23.937Z,64.76
2023-06-23T18:28:51.818Z,65.29
2023-06-23T18:31:20.340Z,65.83
2023-06-23T18:33:48.318Z,66.60
2023-06-23T18:36:16.354Z,66.75
2023-06-23T18:38:44.546Z,67.04
2023-06-23T18:41:12.463Z,67.21
2023-06-23T18:43:40.399Z,67.27
2023-06-23T18:46:08.458Z,67.38
2023-06-23T18:48:36.202Z,67.50
2023-06-23T18:51:04.123Z,67.51
2023-06-23T18:53:34.809Z,67.29
2023-06-23T18:56:03.193Z,67.58
2023-06-23T18:58:31.377Z,67.77
2023-06-23T19:00:59.590Z,67.76
2023-06-23T19:03:28.366Z,68.00
2023-06-23T19:05:56.383Z,68.20
2023-06-23T19:08:24.322Z,68.75
2023-06-23T19:10:52.257Z,68.65
2023-06-23T19:13:20.226Z,68.95
2023-06-23T19:15:48.111Z,68.86
2023-06-23T19:18:16.074Z,69.03
2023-06-23T19:20:43.921Z,69.34
2023-06-23T19:23:11.757Z,69.51
2023-06-23T19:25:39.633Z,69.97
2023-06-23T19:28:07.765Z,71.23
2023-06-23T19:30:38.277Z,71.37
2023-06-23T19:33:07.262Z,71.34
2023-06-23T19:35:35.819Z,71.99
2023-06-23T19:38:03.654Z,72.89
2023-06-23T19:40:31.853Z,74.03
2023-06-23T19:43:00.016Z,72.51
2023-06-23T19:45:28.618Z,71.39
2023-06-23T19:47:56.935Z,70.78
2023-06-23T19:50:25.274Z,67.94
2023-06-23T19:52:53.230Z,66.72
2023-06-23T19:55:21.069Z,65.36
2023-06-23T19:57:50.116Z,62.23
2023-06-23T20:00:18.965Z,60.63
2023-06-23T20:02:47.356Z,60.75
2023-06-23T20:05:15.665Z,60.88
2023-06-23T20:07:44.238Z,60.71
2023-06-23T20:10:12.232Z,60.93
2023-06-23T20:12:40.314Z,61.24
2023-06-23T20:15:10.200Z,61.77
2023-06-23T20:17:38.756Z,61.97
2023-06-23T20:20:07.790Z,61.92
2023-06-23T20:22:35.784Z,62.16
2023-06-23T20:25:03.780Z,62.81
2023-06-23T20:27:32.750Z,63.70
2023-06-23T20:30:00.889Z,64.11
2023-06-23T20:32:28.860Z,64.75
2023-06-23T20:34:56.815Z,65.18
2023-06-23T20:37:25.278Z,65.35
2023-06-23T20:39:53.444Z,66.02
2023-06-23T20:42:21.301Z,66.47
2023-06-23T20:44:50.248Z,66.58
2023-06-23T20:47:18.314Z,66.69
2023-06-23T20:49:46.725Z,66.80
2023-06-23T20:52:16.502Z,67.30
2023-06-23T20:54:52.189Z,67.71
2023-06-23T20:57:20.422Z,68.28
2023-06-23T20:59:48.297Z,68.70
2023-06-23T21:02:16.639Z,69.04
2023-06-23T21:04:47.574Z,69.13
2023-06-23T21:07:17.920Z,69.37
2023-06-23T21:09:46.055Z,69.77
2023-06-23T21:12:15.073Z,70.07
2023-06-23T21:15:04.594Z,70.12
2023-06-23T21:17:39.809Z,70.25
2023-06-23T21:20:10.442Z,70.31
2023-06-23T21:22:38.876Z,70.32
2023-06-23T21:25:07.249Z,70.48
2023-06-23T21:27:35.636Z,70.66
2023-06-23T21:30:04.637Z,70.60
2023-06-23T21:32:33.040Z,70.83
2023-06-23T21:35:01.072Z,70.94
2023-06-23T21:37:28.966Z,71.16
2023-06-23T21:39:57.305Z,71.62
2023-06-23T21:42:25.249Z,71.99
2023-06-23T21:44:53.110Z,72.28
2023-06-23T21:47:21.378Z,72.21
2023-06-23T21:49:49.443Z,72.37
2023-06-23T21:52:17.428Z,72.43
2023-06-23T21:54:45.627Z,72.35
2023-06-23T21:57:21.334Z,72.15
2023-06-23T21:59:57.708Z,72.07
2023-06-23T22:02:26.017Z,72.05
2023-06-23T22:04:55.234Z,71.75
2023-06-23T22:07:23.461Z,71.70
2023-06-23T22:09:51.631Z,71.49
2023-06-23T22:12:19.697Z,71.50
2023-06-23T22:14:47.814Z,71.26
2023-06-23T22:17:18.081Z,70.73
2023-06-23T22:19:46.134Z,72.14
2023-06-23T22:22:14.421Z,75.28
2023-06-23T22:24:43.158Z,77.07
2023-06-23T22:27:11.235Z,76.34
2023-06-23T22:29:39.076Z,76.23
2023-06-23T22:32:08.050Z,76.55
2023-06-23T22:34:36.122Z,77.44
2023-06-23T22:37:05.223Z,78.97
2023-06-23T22:39:33.069Z,79.78
2023-06-23T22:42:00.947Z,80.33
2023-06-23T22:44:28.873Z,80.70
2023-06-23T22:46:56.789Z,81.92
2023-06-23T22:49:24.761Z,85.70
2023-06-23T22:51:54.669Z,90.33
2023-06-23T22:54:23.381Z,94.25
2023-06-23T22:56:51.490Z,98.52
2023-06-23T22:59:19.438Z,99.80
2023-06-23T23:01:47.398Z,100.00
2023-06-23T23:04:15.371Z,100.00
2023-06-23T23:06:44.754Z,100.00
2023-06-23T23:09:13.162Z,100.00
2023-06-23T23:11:41.089Z,100.00
2023-06-23T23:14:09.146Z,100.00
2023-06-23T23:16:37.146Z,100.00
2023-06-23T23:19:05.008Z,100.00
2023-06-23T23:21:33.111Z,100.00
2023-06-23T23:24:02.733Z,100.00
2023-06-23T23:26:30.874Z,100.00
2023-06-23T23:28:59.135Z,100.00
2023-06-23T23:31:27.436Z,100.00
2023-06-23T23:34:01.963Z,100.00
2023-06-23T23:36:34.755Z,100.00
2023-06-23T23:39:02.768Z,100.00
2023-06-23T23:41:30.668Z,100.00
2023-06-23T23:43:58.676Z,100.00
2023-06-23T23:46:26.933Z,100.00
2023-06-23T23:48:55.249Z,100.00
2023-06-23T23:51:23.097Z,100.00
2023-06-23T23:53:50.945Z,100.00
2023-06-23T23:56:18.991Z,100.00
2023-06-23T23:58:47.035Z,100.00
